sensor_id;sensor_type;location;lat;lon;timestamp;noise_LAeq;noise_LA_min;noise_LA_max;noise_LA01;noise_LA95
66460;Laerm;58055;52.456;4.738;2023-07-31T00:00:04;51.90;48.42;55.98;;
66460;Laerm;58055;52.456;4.738;2023-07-31T00:00:15;50.46;47.70;56.74;;
66460;Laerm;58055;52.456;4.738;2023-07-31T00:00:25;51.21;47.91;55.98;;
66460;Laerm;58055;52.456;4.738;2023-07-31T00:00:35;50.90;47.97;55.49;;
66460;Laerm;58055;52.456;4.738;2023-07-31T00:00:46;50.92;47.46;56.37;;
66460;Laerm;58055;52.456;4.738;2023-07-31T00:00:56;50.58;47.42;54.74;;
66460;Laerm;58055;52.456;4.738;2023-07-31T00:01:06;49.82;47.54;55.02;;
66460;Laerm;58055;52.456;4.738;2023-07-31T00:01:17;49.82;47.71;54.02;;
66460;Laerm;58055;52.456;4.738;2023-07-31T00:01:27;49.73;47.18;54.24;;
66460;Laerm;58055;52.456;4.738;2023-07-31T00:01:37;49.94;47.61;53.62;;
66460;Laerm;58055;52.456;4.738;2023-07-31T00:01:47;49.78;47.20;54.17;;
66460;Laerm;58055;52.456;4.738;2023-07-31T00:01:58;50.07;46.85;54.51;;
66460;Laerm;58055;52.456;4.738;2023-07-31T00:02:08;49.72;47.47;53.72;;
66460;Laerm;58055;52.456;4.738;2023-07-31T00:02:18;49.81;47.47;54.13;;
66460;Laerm;58055;52.456;4.738;2023-07-31T00:02:28;49.81;47.25;53.40;;
66460;Laerm;58055;52.456;4.738;2023-07-31T00:02:39;50.62;47.43;54.62;;
66460;Laerm;58055;52.456;4.738;2023-07-31T00:02:49;51.88;47.55;55.73;;
66460;Laerm;58055;52.456;4.738;2023-07-31T00:02:59;52.13;47.70;54.77;;
66460;Laerm;58055;52.456;4.738;2023-07-31T00:03:09;51.73;47.11;55.15;;
66460;Laerm;58055;52.456;4.738;2023-07-31T00:03:20;49.72;47.43;53.41;;
66460;Laerm;58055;52.456;4.738;2023-07-31T00:03:30;50.17;47.41;54.39;;
66460;Laerm;58055;52.456;4.738;2023-07-31T00:03:41;50.24;47.36;54.30;;
66460;Laerm;58055;52.456;4.738;2023-07-31T00:03:51;50.28;47.50;55.43;;
66460;Laerm;58055;52.456;4.738;2023-07-31T00:04:01;50.14;47.40;55.21;;
66460;Laerm;58055;52.456;4.738;2023-07-31T00:04:11;50.63;47.51;55.07;;
66460;Laerm;58055;52.456;4.738;2023-07-31T00:04:22;50.71;47.29;56.18;;
66460;Laerm;58055;52.456;4.738;2023-07-31T00:04:32;51.16;47.33;57.27;;
66460;Laerm;58055;52.456;4.738;2023-07-31T00:04:42;51.38;48.27;58.41;;
66460;Laerm;58055;52.456;4.738;2023-07-31T00:04:53;51.14;47.85;56.07;;
66460;Laerm;58055;52.456;4.738;2023-07-31T00:05:03;50.55;47.58;53.77;;
66460;Laerm;58055;52.456;4.738;2023-07-31T00:05:13;55.31;47.22;62.06;;
66460;Laerm;58055;52.456;4.738;2023-07-31T00:05:23;56.79;51.82;60.44;;
66460;Laerm;58055;52.456;4.738;2023-07-31T00:05:34;57.40;51.56;60.65;;
66460;Laerm;58055;52.456;4.738;2023-07-31T00:05:44;58.09;50.23;62.22;;
66460;Laerm;58055;52.456;4.738;2023-07-31T00:05:54;57.02;51.16;61.15;;
66460;Laerm;58055;52.456;4.738;2023-07-31T00:06:04;58.23;50.36;61.39;;
66460;Laerm;58055;52.456;4.738;2023-07-31T00:06:15;58.04;49.48;61.40;;
66460;Laerm;58055;52.456;4.738;2023-07-31T00:06:25;57.59;53.00;61.60;;
66460;Laerm;58055;52.456;4.738;2023-07-31T00:06:35;58.57;50.64;62.19;;
66460;Laerm;58055;52.456;4.738;2023-07-31T00:06:45;58.67;50.52;62.11;;
66460;Laerm;58055;52.456;4.738;2023-07-31T00:06:56;58.22;50.74;62.79;;
66460;Laerm;58055;52.456;4.738;2023-07-31T00:07:06;56.91;50.50;60.76;;
66460;Laerm;58055;52.456;4.738;2023-07-31T00:07:16;56.62;52.58;60.38;;
66460;Laerm;58055;52.456;4.738;2023-07-31T00:07:27;53.06;49.39;59.31;;
66460;Laerm;58055;52.456;4.738;2023-07-31T00:07:37;51.50;49.19;55.45;;
66460;Laerm;58055;52.456;4.738;2023-07-31T00:07:47;54.83;50.72;57.50;;
66460;Laerm;58055;52.456;4.738;2023-07-31T00:07:57;55.67;51.72;57.20;;
66460;Laerm;58055;52.456;4.738;2023-07-31T00:08:08;57.39;51.68;61.72;;
66460;Laerm;58055;52.456;4.738;2023-07-31T00:08:18;55.70;51.06;59.53;;
66460;Laerm;58055;52.456;4.738;2023-07-31T00:08:28;58.58;50.36;60.99;;
66460;Laerm;58055;52.456;4.738;2023-07-31T00:08:38;57.39;51.33;60.66;;
66460;Laerm;58055;52.456;4.738;2023-07-31T00:08:49;54.14;51.36;58.65;;
66460;Laerm;58055;52.456;4.738;2023-07-31T00:08:59;53.45;49.61;56.45;;
66460;Laerm;58055;52.456;4.738;2023-07-31T00:09:09;54.53;51.10;57.25;;
66460;Laerm;58055;52.456;4.738;2023-07-31T00:09:19;55.23;52.36;57.87;;
66460;Laerm;58055;52.456;4.738;2023-07-31T00:09:30;54.21;51.36;57.03;;
66460;Laerm;58055;52.456;4.738;2023-07-31T00:09:40;53.70;52.04;55.95;;
66460;Laerm;58055;52.456;4.738;2023-07-31T00:09:50;52.73;48.92;55.90;;
66460;Laerm;58055;52.456;4.738;2023-07-31T00:10:00;49.92;48.23;53.38;;
66460;Laerm;58055;52.456;4.738;2023-07-31T00:10:11;49.88;48.58;51.95;;
66460;Laerm;58055;52.456;4.738;2023-07-31T00:10:21;50.86;48.38;53.29;;
66460;Laerm;58055;52.456;4.738;2023-07-31T00:10:32;52.32;50.16;56.24;;
66460;Laerm;58055;52.456;4.738;2023-07-31T00:10:43;53.23;49.35;57.16;;
66460;Laerm;58055;52.456;4.738;2023-07-31T00:10:53;51.41;48.45;56.66;;
66460;Laerm;58055;52.456;4.738;2023-07-31T00:11:04;51.08;48.35;55.53;;
66460;Laerm;58055;52.456;4.738;2023-07-31T00:11:14;55.41;51.14;60.94;;
66460;Laerm;58055;52.456;4.738;2023-07-31T00:11:24;56.56;52.68;59.47;;
66460;Laerm;58055;52.456;4.738;2023-07-31T00:11:34;53.49;49.82;56.69;;
66460;Laerm;58055;52.456;4.738;2023-07-31T00:11:45;59.58;52.14;65.32;;
66460;Laerm;58055;52.456;4.738;2023-07-31T00:11:55;61.62;55.90;65.34;;
66460;Laerm;58055;52.456;4.738;2023-07-31T00:12:06;61.29;54.30;64.31;;
66460;Laerm;58055;52.456;4.738;2023-07-31T00:12:16;60.98;53.82;64.98;;
66460;Laerm;58055;52.456;4.738;2023-07-31T00:12:26;61.54;55.78;64.71;;
66460;Laerm;58055;52.456;4.738;2023-07-31T00:12:38;61.45;51.90;64.88;;
66460;Laerm;58055;52.456;4.738;2023-07-31T00:12:48;61.74;52.98;65.47;;
66460;Laerm;58055;52.456;4.738;2023-07-31T00:12:58;61.83;51.16;65.07;;
66460;Laerm;58055;52.456;4.738;2023-07-31T00:13:09;62.03;56.01;65.22;;
66460;Laerm;58055;52.456;4.738;2023-07-31T00:13:19;60.55;52.81;64.99;;
66460;Laerm;58055;52.456;4.738;2023-07-31T00:13:29;60.62;54.23;64.56;;
66460;Laerm;58055;52.456;4.738;2023-07-31T00:13:40;60.69;54.13;64.58;;
66460;Laerm;58055;52.456;4.738;2023-07-31T00:13:50;60.85;53.02;63.94;;
66460;Laerm;58055;52.456;4.738;2023-07-31T00:14:00;61.36;54.39;64.65;;
66460;Laerm;58055;52.456;4.738;2023-07-31T00:14:10;61.83;54.30;65.23;;
66460;Laerm;58055;52.456;4.738;2023-07-31T00:14:21;61.70;54.17;66.22;;
66460;Laerm;58055;52.456;4.738;2023-07-31T00:14:31;61.34;54.48;65.44;;
66460;Laerm;58055;52.456;4.738;2023-07-31T00:14:41;61.23;54.35;65.17;;
66460;Laerm;58055;52.456;4.738;2023-07-31T00:14:52;61.36;55.23;64.65;;
66460;Laerm;58055;52.456;4.738;2023-07-31T00:15:02;60.20;50.53;65.10;;
66460;Laerm;58055;52.456;4.738;2023-07-31T00:15:13;54.15;49.23;62.21;;
66460;Laerm;58055;52.456;4.738;2023-07-31T00:15:23;58.38;50.64;62.57;;
66460;Laerm;58055;52.456;4.738;2023-07-31T00:15:33;59.88;52.92;63.09;;
66460;Laerm;58055;52.456;4.738;2023-07-31T00:15:44;57.85;47.84;62.08;;
66460;Laerm;58055;52.456;4.738;2023-07-31T00:15:54;56.89;47.76;62.11;;
66460;Laerm;58055;52.456;4.738;2023-07-31T00:16:04;55.83;47.33;59.53;;
66460;Laerm;58055;52.456;4.738;2023-07-31T00:16:15;55.84;47.32;60.37;;
66460;Laerm;58055;52.456;4.738;2023-07-31T00:16:25;55.20;47.27;59.42;;
66460;Laerm;58055;52.456;4.738;2023-07-31T00:16:35;55.73;47.54;60.19;;
66460;Laerm;58055;52.456;4.738;2023-07-31T00:16:46;56.54;47.96;60.39;;
66460;Laerm;58055;52.456;4.738;2023-07-31T00:16:56;57.52;47.81;63.20;;
66460;Laerm;58055;52.456;4.738;2023-07-31T00:17:06;57.36;48.97;61.39;;
66460;Laerm;58055;52.456;4.738;2023-07-31T00:17:17;57.51;49.58;61.05;;
66460;Laerm;58055;52.456;4.738;2023-07-31T00:17:27;57.67;49.94;61.32;;
66460;Laerm;58055;52.456;4.738;2023-07-31T00:17:37;57.42;49.80;62.14;;
66460;Laerm;58055;52.456;4.738;2023-07-31T00:17:48;57.61;48.18;62.49;;
66460;Laerm;58055;52.456;4.738;2023-07-31T00:17:58;58.46;48.23;64.01;;
66460;Laerm;58055;52.456;4.738;2023-07-31T00:18:08;57.91;49.18;62.58;;
66460;Laerm;58055;52.456;4.738;2023-07-31T00:18:18;57.80;50.48;61.50;;
66460;Laerm;58055;52.456;4.738;2023-07-31T00:18:29;58.08;48.56;61.90;;
66460;Laerm;58055;52.456;4.738;2023-07-31T00:18:39;59.20;52.99;63.14;;
66460;Laerm;58055;52.456;4.738;2023-07-31T00:18:49;61.96;53.40;65.33;;
66460;Laerm;58055;52.456;4.738;2023-07-31T00:19:00;61.48;50.65;65.04;;
66460;Laerm;58055;52.456;4.738;2023-07-31T00:19:10;58.13;51.37;62.58;;
66460;Laerm;58055;52.456;4.738;2023-07-31T00:19:20;59.26;51.93;62.74;;
66460;Laerm;58055;52.456;4.738;2023-07-31T00:19:30;57.87;49.79;62.93;;
66460;Laerm;58055;52.456;4.738;2023-07-31T00:19:41;56.75;49.84;60.56;;
66460;Laerm;58055;52.456;4.738;2023-07-31T00:19:51;58.09;47.20;62.63;;
66460;Laerm;58055;52.456;4.738;2023-07-31T00:20:01;56.47;49.55;60.32;;
66460;Laerm;58055;52.456;4.738;2023-07-31T00:20:12;56.53;48.92;60.03;;
66460;Laerm;58055;52.456;4.738;2023-07-31T00:20:22;57.64;51.24;61.45;;
66460;Laerm;58055;52.456;4.738;2023-07-31T00:20:33;57.98;51.56;61.81;;
66460;Laerm;58055;52.456;4.738;2023-07-31T00:20:43;58.87;51.89;62.71;;
66460;Laerm;58055;52.456;4.738;2023-07-31T00:20:53;57.50;48.97;61.30;;
66460;Laerm;58055;52.456;4.738;2023-07-31T00:21:03;55.90;48.57;62.18;;
66460;Laerm;58055;52.456;4.738;2023-07-31T00:21:14;57.37;47.85;62.38;;
66460;Laerm;58055;52.456;4.738;2023-07-31T00:21:24;56.20;48.21;61.47;;
66460;Laerm;58055;52.456;4.738;2023-07-31T00:21:34;56.59;47.46;63.91;;
66460;Laerm;58055;52.456;4.738;2023-07-31T00:21:44;57.73;50.89;64.22;;
66460;Laerm;58055;52.456;4.738;2023-07-31T00:21:55;56.58;48.83;60.74;;
66460;Laerm;58055;52.456;4.738;2023-07-31T00:22:05;57.53;48.26;61.88;;
66460;Laerm;58055;52.456;4.738;2023-07-31T00:22:15;58.49;50.07;63.89;;
66460;Laerm;58055;52.456;4.738;2023-07-31T00:22:26;58.02;49.85;62.23;;
66460;Laerm;58055;52.456;4.738;2023-07-31T00:22:36;60.16;52.85;64.39;;
66460;Laerm;58055;52.456;4.738;2023-07-31T00:22:46;58.28;50.37;63.34;;
66460;Laerm;58055;52.456;4.738;2023-07-31T00:22:57;57.29;49.04;62.67;;
66460;Laerm;58055;52.456;4.738;2023-07-31T00:23:07;57.87;49.99;62.87;;
66460;Laerm;58055;52.456;4.738;2023-07-31T00:23:17;58.06;49.07;63.44;;
66460;Laerm;58055;52.456;4.738;2023-07-31T00:23:27;57.54;49.92;63.56;;
66460;Laerm;58055;52.456;4.738;2023-07-31T00:23:38;58.31;48.36;63.40;;
66460;Laerm;58055;52.456;4.738;2023-07-31T00:23:48;59.05;48.56;64.73;;
66460;Laerm;58055;52.456;4.738;2023-07-31T00:23:58;58.64;48.00;63.77;;
66460;Laerm;58055;52.456;4.738;2023-07-31T00:24:08;57.94;50.02;64.00;;
66460;Laerm;58055;52.456;4.738;2023-07-31T00:24:19;58.23;48.42;62.98;;
66460;Laerm;58055;52.456;4.738;2023-07-31T00:24:29;58.27;50.13;63.45;;
66460;Laerm;58055;52.456;4.738;2023-07-31T00:24:39;57.89;48.89;63.96;;
66460;Laerm;58055;52.456;4.738;2023-07-31T00:24:49;57.38;47.79;61.20;;
66460;Laerm;58055;52.456;4.738;2023-07-31T00:25:00;60.05;48.44;64.71;;
66460;Laerm;58055;52.456;4.738;2023-07-31T00:25:10;62.49;58.24;65.17;;
66460;Laerm;58055;52.456;4.738;2023-07-31T00:25:20;62.71;58.31;65.01;;
66460;Laerm;58055;52.456;4.738;2023-07-31T00:25:30;62.36;58.31;65.15;;
66460;Laerm;58055;52.456;4.738;2023-07-31T00:25:41;59.98;55.61;63.47;;
66460;Laerm;58055;52.456;4.738;2023-07-31T00:25:51;60.58;54.87;63.58;;
66460;Laerm;58055;52.456;4.738;2023-07-31T00:26:01;60.97;50.91;63.47;;
66460;Laerm;58055;52.456;4.738;2023-07-31T00:26:12;56.37;49.14;60.75;;
66460;Laerm;58055;52.456;4.738;2023-07-31T00:26:22;56.18;49.65;59.98;;
66460;Laerm;58055;52.456;4.738;2023-07-31T00:26:32;55.72;48.99;60.20;;
66460;Laerm;58055;52.456;4.738;2023-07-31T00:26:42;56.17;49.93;61.01;;
66460;Laerm;58055;52.456;4.738;2023-07-31T00:26:53;55.86;50.14;59.97;;
66460;Laerm;58055;52.456;4.738;2023-07-31T00:27:03;55.96;49.25;59.65;;
66460;Laerm;58055;52.456;4.738;2023-07-31T00:27:13;55.60;48.91;59.32;;
66460;Laerm;58055;52.456;4.738;2023-07-31T00:27:24;61.58;49.88;68.53;;
66460;Laerm;58055;52.456;4.738;2023-07-31T00:27:34;63.89;52.77;69.05;;
66460;Laerm;58055;52.456;4.738;2023-07-31T00:27:44;62.15;58.24;64.61;;
66460;Laerm;58055;52.456;4.738;2023-07-31T00:27:56;62.17;58.84;65.16;;
66460;Laerm;58055;52.456;4.738;2023-07-31T00:28:06;62.62;54.22;66.45;;
66460;Laerm;58055;52.456;4.738;2023-07-31T00:28:16;65.04;60.37;68.55;;
66460;Laerm;58055;52.456;4.738;2023-07-31T00:28:26;63.41;57.67;66.12;;
66460;Laerm;58055;52.456;4.738;2023-07-31T00:28:38;60.56;50.99;64.14;;
66460;Laerm;58055;52.456;4.738;2023-07-31T00:28:48;60.15;56.14;63.33;;
66460;Laerm;58055;52.456;4.738;2023-07-31T00:28:59;59.83;55.50;62.76;;
66460;Laerm;58055;52.456;4.738;2023-07-31T00:29:09;61.07;57.13;64.10;;
66460;Laerm;58055;52.456;4.738;2023-07-31T00:29:19;60.17;55.06;64.37;;
66460;Laerm;58055;52.456;4.738;2023-07-31T00:29:30;58.72;53.05;63.01;;
66460;Laerm;58055;52.456;4.738;2023-07-31T00:29:40;58.44;53.63;61.72;;
66460;Laerm;58055;52.456;4.738;2023-07-31T00:29:51;58.36;53.05;61.34;;
66460;Laerm;58055;52.456;4.738;2023-07-31T00:30:01;57.78;53.13;60.97;;
66460;Laerm;58055;52.456;4.738;2023-07-31T00:30:11;57.73;52.63;61.09;;
66460;Laerm;58055;52.456;4.738;2023-07-31T00:30:22;58.64;52.50;62.49;;
66460;Laerm;58055;52.456;4.738;2023-07-31T00:30:32;58.65;51.43;61.87;;
66460;Laerm;58055;52.456;4.738;2023-07-31T00:30:42;58.24;53.01;62.16;;
66460;Laerm;58055;52.456;4.738;2023-07-31T00:30:53;57.37;51.32;60.41;;
66460;Laerm;58055;52.456;4.738;2023-07-31T00:31:03;58.68;53.98;62.08;;
66460;Laerm;58055;52.456;4.738;2023-07-31T00:31:13;58.62;53.65;61.90;;
66460;Laerm;58055;52.456;4.738;2023-07-31T00:31:24;57.80;52.39;61.47;;
66460;Laerm;58055;52.456;4.738;2023-07-31T00:31:34;57.12;51.65;60.92;;
66460;Laerm;58055;52.456;4.738;2023-07-31T00:31:44;56.79;50.28;60.13;;
66460;Laerm;58055;52.456;4.738;2023-07-31T00:31:55;57.47;52.13;60.50;;
66460;Laerm;58055;52.456;4.738;2023-07-31T00:32:05;56.57;51.91;60.11;;
66460;Laerm;58055;52.456;4.738;2023-07-31T00:32:15;55.19;50.85;59.38;;
66460;Laerm;58055;52.456;4.738;2023-07-31T00:32:26;55.09;50.74;58.68;;
66460;Laerm;58055;52.456;4.738;2023-07-31T00:32:36;54.81;50.60;59.08;;
66460;Laerm;58055;52.456;4.738;2023-07-31T00:32:46;56.31;50.43;60.27;;
66460;Laerm;58055;52.456;4.738;2023-07-31T00:32:56;56.21;51.55;60.22;;
66460;Laerm;58055;52.456;4.738;2023-07-31T00:33:07;56.88;53.04;60.68;;
66460;Laerm;58055;52.456;4.738;2023-07-31T00:33:17;55.82;51.96;58.88;;
66460;Laerm;58055;52.456;4.738;2023-07-31T00:33:27;56.67;52.19;60.74;;
66460;Laerm;58055;52.456;4.738;2023-07-31T00:33:37;56.05;50.67;59.41;;
66460;Laerm;58055;52.456;4.738;2023-07-31T00:33:48;59.79;52.87;63.11;;
66460;Laerm;58055;52.456;4.738;2023-07-31T00:33:58;59.46;53.32;62.76;;
66460;Laerm;58055;52.456;4.738;2023-07-31T00:34:08;59.77;52.11;63.03;;
66460;Laerm;58055;52.456;4.738;2023-07-31T00:34:19;60.88;56.19;63.89;;
66460;Laerm;58055;52.456;4.738;2023-07-31T00:34:29;60.44;54.88;63.33;;
66460;Laerm;58055;52.456;4.738;2023-07-31T00:34:39;59.97;55.62;63.39;;
66460;Laerm;58055;52.456;4.738;2023-07-31T00:34:49;60.47;56.53;63.64;;
66460;Laerm;58055;52.456;4.738;2023-07-31T00:35:00;59.72;53.89;62.73;;
66460;Laerm;58055;52.456;4.738;2023-07-31T00:35:10;58.69;53.22;61.74;;
66460;Laerm;58055;52.456;4.738;2023-07-31T00:35:20;59.66;54.63;63.46;;
66460;Laerm;58055;52.456;4.738;2023-07-31T00:35:31;59.75;55.47;62.66;;
66460;Laerm;58055;52.456;4.738;2023-07-31T00:35:41;59.20;54.97;62.90;;
66460;Laerm;58055;52.456;4.738;2023-07-31T00:35:51;59.91;51.73;62.69;;
66460;Laerm;58055;52.456;4.738;2023-07-31T00:36:02;60.50;54.02;63.42;;
66460;Laerm;58055;52.456;4.738;2023-07-31T00:36:12;59.34;49.07;62.77;;
66460;Laerm;58055;52.456;4.738;2023-07-31T00:36:22;58.08;51.80;61.80;;
66460;Laerm;58055;52.456;4.738;2023-07-31T00:36:33;59.09;53.87;62.55;;
66460;Laerm;58055;52.456;4.738;2023-07-31T00:36:43;59.19;52.51;62.65;;
66460;Laerm;58055;52.456;4.738;2023-07-31T00:36:53;59.24;54.18;62.84;;
66460;Laerm;58055;52.456;4.738;2023-07-31T00:37:03;61.21;57.37;64.33;;
66460;Laerm;58055;52.456;4.738;2023-07-31T00:37:14;62.25;57.51;64.94;;
66460;Laerm;58055;52.456;4.738;2023-07-31T00:37:25;61.68;57.06;65.49;;
66460;Laerm;58055;52.456;4.738;2023-07-31T00:37:35;60.90;54.59;63.96;;
66460;Laerm;58055;52.456;4.738;2023-07-31T00:37:45;61.49;56.90;63.73;;
66460;Laerm;58055;52.456;4.738;2023-07-31T00:37:57;61.61;57.99;63.98;;
66460;Laerm;58055;52.456;4.738;2023-07-31T00:38:08;61.01;53.09;67.14;;
66460;Laerm;58055;52.456;4.738;2023-07-31T00:38:18;61.34;55.78;66.93;;
66460;Laerm;58055;52.456;4.738;2023-07-31T00:38:28;58.89;54.86;61.38;;
66460;Laerm;58055;52.456;4.738;2023-07-31T00:38:38;59.16;54.97;61.73;;
66460;Laerm;58055;52.456;4.738;2023-07-31T00:38:49;59.79;55.02;62.24;;
66460;Laerm;58055;52.456;4.738;2023-07-31T00:38:59;59.93;54.11;62.89;;
66460;Laerm;58055;52.456;4.738;2023-07-31T00:39:09;59.74;54.54;63.42;;
66460;Laerm;58055;52.456;4.738;2023-07-31T00:39:20;57.67;51.22;61.47;;
66460;Laerm;58055;52.456;4.738;2023-07-31T00:39:30;58.83;52.93;62.83;;
66460;Laerm;58055;52.456;4.738;2023-07-31T00:39:41;61.66;57.54;64.29;;
66460;Laerm;58055;52.456;4.738;2023-07-31T00:39:51;61.89;55.31;65.08;;
66460;Laerm;58055;52.456;4.738;2023-07-31T00:40:01;62.24;58.75;67.48;;
66460;Laerm;58055;52.456;4.738;2023-07-31T00:40:13;62.39;57.61;65.60;;
66460;Laerm;58055;52.456;4.738;2023-07-31T00:40:24;60.80;49.06;63.42;;
66460;Laerm;58055;52.456;4.738;2023-07-31T00:40:35;61.48;58.27;63.50;;
66460;Laerm;58055;52.456;4.738;2023-07-31T00:40:46;61.86;58.52;64.65;;
66460;Laerm;58055;52.456;4.738;2023-07-31T00:40:58;59.47;55.56;61.95;;
66460;Laerm;58055;52.456;4.738;2023-07-31T00:41:08;59.26;54.53;62.19;;
66460;Laerm;58055;52.456;4.738;2023-07-31T00:41:18;57.58;50.16;61.05;;
66460;Laerm;58055;52.456;4.738;2023-07-31T00:41:28;58.81;50.89;61.52;;
66460;Laerm;58055;52.456;4.738;2023-07-31T00:41:39;58.51;54.22;61.07;;
66460;Laerm;58055;52.456;4.738;2023-07-31T00:41:49;56.07;51.01;61.19;;
66460;Laerm;58055;52.456;4.738;2023-07-31T00:41:59;58.34;54.16;61.01;;
66460;Laerm;58055;52.456;4.738;2023-07-31T00:42:09;59.47;55.91;62.15;;
66460;Laerm;58055;52.456;4.738;2023-07-31T00:42:20;58.38;50.90;61.01;;
66460;Laerm;58055;52.456;4.738;2023-07-31T00:42:30;59.12;55.74;61.29;;
66460;Laerm;58055;52.456;4.738;2023-07-31T00:42:40;59.26;53.64;61.73;;
66460;Laerm;58055;52.456;4.738;2023-07-31T00:42:51;58.99;55.30;61.86;;
66460;Laerm;58055;52.456;4.738;2023-07-31T00:43:01;58.53;51.43;62.35;;
66460;Laerm;58055;52.456;4.738;2023-07-31T00:43:11;58.92;50.96;61.75;;
66460;Laerm;58055;52.456;4.738;2023-07-31T00:43:21;59.79;55.97;61.54;;
66460;Laerm;58055;52.456;4.738;2023-07-31T00:43:32;59.71;55.77;61.96;;
66460;Laerm;58055;52.456;4.738;2023-07-31T00:43:43;59.69;54.24;62.78;;
66460;Laerm;58055;52.456;4.738;2023-07-31T00:43:53;60.12;56.96;62.82;;
66460;Laerm;58055;52.456;4.738;2023-07-31T00:44:03;59.50;55.72;62.16;;
66460;Laerm;58055;52.456;4.738;2023-07-31T00:44:13;59.84;56.85;62.47;;
66460;Laerm;58055;52.456;4.738;2023-07-31T00:44:24;59.89;54.61;62.18;;
66460;Laerm;58055;52.456;4.738;2023-07-31T00:44:34;59.30;55.71;62.26;;
66460;Laerm;58055;52.456;4.738;2023-07-31T00:44:44;58.83;54.83;61.69;;
66460;Laerm;58055;52.456;4.738;2023-07-31T00:44:55;58.75;55.14;61.32;;
66460;Laerm;58055;52.456;4.738;2023-07-31T00:45:05;58.64;54.37;62.70;;
66460;Laerm;58055;52.456;4.738;2023-07-31T00:45:15;58.43;54.32;61.48;;
66460;Laerm;58055;52.456;4.738;2023-07-31T00:45:26;58.15;54.75;60.93;;
66460;Laerm;58055;52.456;4.738;2023-07-31T00:45:37;58.80;54.67;61.93;;
66460;Laerm;58055;52.456;4.738;2023-07-31T00:45:47;59.34;55.70;62.43;;
66460;Laerm;58055;52.456;4.738;2023-07-31T00:45:58;59.16;55.13;62.05;;
66460;Laerm;58055;52.456;4.738;2023-07-31T00:46:08;60.02;56.74;62.31;;
66460;Laerm;58055;52.456;4.738;2023-07-31T00:46:18;60.14;55.26;62.47;;
66460;Laerm;58055;52.456;4.738;2023-07-31T00:46:29;59.00;55.53;61.04;;
66460;Laerm;58055;52.456;4.738;2023-07-31T00:46:39;58.93;52.72;61.31;;
66460;Laerm;58055;52.456;4.738;2023-07-31T00:46:49;57.79;53.01;61.55;;
66460;Laerm;58055;52.456;4.738;2023-07-31T00:46:59;57.70;54.28;60.52;;
66460;Laerm;58055;52.456;4.738;2023-07-31T00:47:10;58.25;54.77;61.49;;
66460;Laerm;58055;52.456;4.738;2023-07-31T00:47:20;58.29;54.38;61.34;;
66460;Laerm;58055;52.456;4.738;2023-07-31T00:47:30;59.16;56.38;61.55;;
66460;Laerm;58055;52.456;4.738;2023-07-31T00:47:40;61.34;57.69;63.68;;
66460;Laerm;58055;52.456;4.738;2023-07-31T00:47:51;61.17;57.33;63.80;;
66460;Laerm;58055;52.456;4.738;2023-07-31T00:48:01;60.06;56.22;63.11;;
66460;Laerm;58055;52.456;4.738;2023-07-31T00:48:12;60.00;57.53;62.13;;
66460;Laerm;58055;52.456;4.738;2023-07-31T00:48:22;60.57;54.91;64.00;;
66460;Laerm;58055;52.456;4.738;2023-07-31T00:48:33;62.48;59.96;64.04;;
66460;Laerm;58055;52.456;4.738;2023-07-31T00:48:43;62.71;59.13;64.14;;
66460;Laerm;58055;52.456;4.738;2023-07-31T00:48:54;62.79;61.32;64.01;;
66460;Laerm;58055;52.456;4.738;2023-07-31T00:49:04;62.72;60.90;63.98;;
66460;Laerm;58055;52.456;4.738;2023-07-31T00:49:15;62.65;60.87;63.87;;
66460;Laerm;58055;52.456;4.738;2023-07-31T00:49:26;62.71;58.37;64.80;;
66460;Laerm;58055;52.456;4.738;2023-07-31T00:49:37;62.62;60.69;65.24;;
66460;Laerm;58055;52.456;4.738;2023-07-31T00:49:47;62.45;60.27;63.99;;
66460;Laerm;58055;52.456;4.738;2023-07-31T00:49:58;62.69;60.84;64.11;;
66460;Laerm;58055;52.456;4.738;2023-07-31T00:50:08;62.58;59.68;64.17;;
66460;Laerm;58055;52.456;4.738;2023-07-31T00:50:19;61.94;59.73;63.59;;
66460;Laerm;58055;52.456;4.738;2023-07-31T00:50:29;62.55;60.11;64.04;;
66460;Laerm;58055;52.456;4.738;2023-07-31T00:50:39;62.42;60.58;63.77;;
66460;Laerm;58055;52.456;4.738;2023-07-31T00:50:49;60.30;55.19;63.49;;
66460;Laerm;58055;52.456;4.738;2023-07-31T00:51:00;59.48;55.75;62.18;;
66460;Laerm;58055;52.456;4.738;2023-07-31T00:51:11;58.84;55.95;61.88;;
66460;Laerm;58055;52.456;4.738;2023-07-31T00:51:21;58.91;56.63;60.59;;
66460;Laerm;58055;52.456;4.738;2023-07-31T00:51:32;58.57;54.78;61.03;;
66460;Laerm;58055;52.456;4.738;2023-07-31T00:51:42;58.03;54.47;59.85;;
66460;Laerm;58055;52.456;4.738;2023-07-31T00:51:52;58.69;55.45;60.54;;
66460;Laerm;58055;52.456;4.738;2023-07-31T00:52:03;58.62;56.65;60.48;;
66460;Laerm;58055;52.456;4.738;2023-07-31T00:52:14;58.21;55.81;60.38;;
66460;Laerm;58055;52.456;4.738;2023-07-31T00:52:24;57.87;54.84;59.85;;
66460;Laerm;58055;52.456;4.738;2023-07-31T00:52:35;57.88;53.81;61.00;;
66460;Laerm;58055;52.456;4.738;2023-07-31T00:52:45;55.52;51.54;59.12;;
66460;Laerm;58055;52.456;4.738;2023-07-31T00:52:55;58.93;56.79;60.62;;
66460;Laerm;58055;52.456;4.738;2023-07-31T00:53:06;58.51;55.75;60.22;;
66460;Laerm;58055;52.456;4.738;2023-07-31T00:53:16;58.85;56.94;60.53;;
66460;Laerm;58055;52.456;4.738;2023-07-31T00:53:27;58.71;55.89;60.52;;
66460;Laerm;58055;52.456;4.738;2023-07-31T00:53:37;59.15;56.54;61.28;;
66460;Laerm;58055;52.456;4.738;2023-07-31T00:53:48;59.40;56.71;60.97;;
66460;Laerm;58055;52.456;4.738;2023-07-31T00:53:59;58.84;55.78;60.52;;
66460;Laerm;58055;52.456;4.738;2023-07-31T00:54:09;59.05;56.48;61.06;;
66460;Laerm;58055;52.456;4.738;2023-07-31T00:54:21;58.56;55.91;60.60;;
66460;Laerm;58055;52.456;4.738;2023-07-31T00:54:31;58.77;55.90;60.68;;
66460;Laerm;58055;52.456;4.738;2023-07-31T00:54:41;58.91;56.29;61.30;;
66460;Laerm;58055;52.456;4.738;2023-07-31T00:54:52;59.74;57.09;61.51;;
66460;Laerm;58055;52.456;4.738;2023-07-31T00:55:02;59.55;56.61;63.46;;
66460;Laerm;58055;52.456;4.738;2023-07-31T00:55:13;59.54;56.19;61.04;;
66460;Laerm;58055;52.456;4.738;2023-07-31T00:55:23;59.58;56.02;61.33;;
66460;Laerm;58055;52.456;4.738;2023-07-31T00:55:34;59.46;56.88;61.20;;
66460;Laerm;58055;52.456;4.738;2023-07-31T00:55:44;59.06;53.95;61.19;;
66460;Laerm;58055;52.456;4.738;2023-07-31T00:55:54;58.85;51.20;63.92;;
66460;Laerm;58055;52.456;4.738;2023-07-31T00:56:05;57.10;52.36;64.20;;
66460;Laerm;58055;52.456;4.738;2023-07-31T00:56:15;56.67;51.99;59.54;;
66460;Laerm;58055;52.456;4.738;2023-07-31T00:56:26;56.33;51.10;59.98;;
66460;Laerm;58055;52.456;4.738;2023-07-31T00:56:37;57.39;52.13;59.74;;
66460;Laerm;58055;52.456;4.738;2023-07-31T00:56:48;57.26;51.95;60.40;;
66460;Laerm;58055;52.456;4.738;2023-07-31T00:57:00;57.30;52.74;59.95;;
66460;Laerm;58055;52.456;4.738;2023-07-31T00:57:11;58.12;52.33;60.60;;
66460;Laerm;58055;52.456;4.738;2023-07-31T00:57:21;59.42;56.80;61.38;;
66460;Laerm;58055;52.456;4.738;2023-07-31T00:57:32;59.29;56.57;61.01;;
66460;Laerm;58055;52.456;4.738;2023-07-31T00:57:42;59.70;57.13;61.88;;
66460;Laerm;58055;52.456;4.738;2023-07-31T00:57:55;59.85;56.89;61.73;;
66460;Laerm;58055;52.456;4.738;2023-07-31T00:58:05;59.95;50.22;61.91;;